Time;durP1;ratioP1;P1;durP2;ratioP2;P2;SDS_P1;SDS_P2;PMS_P1;PMS_P2;Temp;Humidity;BMP_temperature;BMP_pressure;BME280_temperature;BME280_humidity;BME280_pressure;Samples;Min_cycle;Max_cycle;Signal;HPM_P1;HPM_P2
2023/06/23 00:00:13;;;;;;;6.60;6.40;;;;;;;-141.02;100.00;101464.19;5113038;28;20749;-69
2023/06/23 00:02:41;;;;;;;5.80;5.70;;;;;;;-141.02;100.00;101714.16;5113294;28;20185;-57
2023/06/23 00:05:09;;;;;;;5.20;5.10;;;;;;;-141.02;100.00;102214.16;5113187;28;20203;-68
2023/06/23 00:07:36;;;;;;;5.00;4.90;;;;;;;-141.02;100.00;102714.25;5113432;28;20202;-57
2023/06/23 00:10:06;;;;;;;4.32;4.22;;;;;;;-141.02;100.00;103214.44;5113025;28;20204;-57
2023/06/23 00:12:35;;;;;;;4.10;4.00;;;;;;;-141.02;100.00;103714.66;5113062;28;20197;-57
2023/06/23 00:15:03;;;;;;;4.28;4.18;;;;;;;-141.02;100.00;103714.66;5113231;28;20221;-57
2023/06/23 00:17:30;;;;;;;4.20;4.10;;;;;;;-141.02;100.00;103964.81;5113253;28;20197;-57
2023/06/23 00:19:57;;;;;;;3.92;3.83;;;;;;;-141.02;100.00;103964.81;5112872;28;20280;-56
2023/06/23 00:22:25;;;;;;;3.80;3.70;;;;;;;-141.02;100.00;104465.16;5112841;28;20193;-57
2023/06/23 00:24:52;;;;;;;3.90;3.80;;;;;;;-141.02;100.00;104465.16;5112898;28;20288;-57
2023/06/23 00:27:20;;;;;;;4.05;3.95;;;;;;;-141.02;100.00;104465.16;5113061;28;20194;-56
2023/06/23 00:29:48;;;;;;;4.40;4.30;;;;;;;-141.02;100.00;104465.16;5113025;28;20281;-57
2023/06/23 00:32:15;;;;;;;4.10;4.00;;;;;;;-141.02;100.00;104715.34;5113007;28;20232;-57
2023/06/23 00:34:42;;;;;;;4.38;4.28;;;;;;;-141.02;100.00;104715.34;5112587;28;20658;-57
2023/06/23 00:38:03;;;;;;;4.25;4.15;;;;;;;-141.02;100.00;104465.16;5112715;28;20204;-69
2023/06/23 00:40:30;;;;;;;4.00;3.90;;;;;;;-141.02;100.00;104715.34;5112883;28;20272;-57
2023/06/23 00:42:58;;;;;;;3.60;3.50;;;;;;;-141.02;100.00;105215.78;5112653;28;20189;-57
2023/06/23 00:45:25;;;;;;;3.20;3.20;;;;;;;-141.02;100.00;105966.59;5112590;28;20283;-57
2023/06/23 00:47:53;;;;;;;2.95;2.95;;;;;;;-141.02;100.00;106717.56;5112827;28;20225;-57
2023/06/23 00:50:21;;;;;;;2.53;2.53;;;;;;;-141.02;100.00;107218.31;5112869;28;20197;-57
2023/06/23 00:52:51;;;;;;;2.50;2.50;;;;;;;-141.02;100.00;107468.69;5112425;28;20667;-57
2023/06/23 00:55:19;;;;;;;2.25;2.25;;;;;;;-141.02;100.00;107719.09;5112402;28;20227;-57
2023/06/23 00:57:46;;;;;;;2.10;2.10;;;;;;;-141.02;100.00;107969.53;5112373;28;20236;-57
2023/06/23 01:00:17;;;;;;;2.10;2.10;;;;;;;-141.02;100.00;107969.53;5112191;28;20789;-57
2023/06/23 01:02:45;;;;;;;2.10;2.10;;;;;;;-141.02;100.00;107969.53;5112383;28;20272;-57
2023/06/23 01:05:13;;;;;;;2.20;2.20;;;;;;;-141.02;100.00;107969.53;5112676;28;20200;-57
2023/06/23 01:11:09;;;;;;;2.20;2.20;;;;;;;-141.02;100.00;107971.50;5116526;28;20204;-57
2023/06/23 01:20:27;;;;;;;2.10;2.10;;;;;;;-141.02;100.00;107971.50;5116511;28;20200;-57
2023/06/23 01:23:28;;;;;;;2.30;2.30;;;;;;;-141.02;100.00;107971.50;5116713;28;20189;-57
2023/06/23 01:26:06;;;;;;;1.95;1.95;;;;;;;-141.02;100.00;107971.50;5063479;28;20197;-57
2023/06/23 01:29:07;;;;;;;1.90;1.90;;;;;;;-141.02;100.00;107971.50;5116215;28;20197;-56
2023/06/23 01:31:51;;;;;;;2.00;2.00;;;;;;;-141.02;100.00;107971.50;5116218;28;20715;-57
2023/06/23 01:34:21;;;;;;;2.10;2.10;;;;;;;-141.02;100.00;107971.50;5116420;28;20188;-57
2023/06/23 01:36:55;;;;;;;2.00;2.00;;;;;;;-141.02;100.00;107971.50;5116386;28;20216;-56
2023/06/23 01:39:38;;;;;;;2.10;2.10;;;;;;;-141.02;100.00;107971.50;5116009;28;20181;-57
2023/06/23 01:42:11;;;;;;;2.10;2.10;;;;;;;-141.02;100.00;107971.50;5116019;27;20221;-57
2023/06/23 01:44:43;;;;;;;2.10;2.10;;;;;;;-141.02;100.00;107971.50;5115900;28;20595;-57
2023/06/23 01:47:17;;;;;;;2.20;2.20;;;;;;;-141.02;100.00;107971.50;5116287;28;20278;-69
2023/06/23 01:53:06;;;;;;;1.90;1.90;;;;;;;-141.02;100.00;107971.50;5115788;28;20236;-69
2023/06/23 01:59:13;;;;;;;2.20;2.20;;;;;;;-141.02;100.00;107971.50;5115699;28;20260;-57
2023/06/23 02:01:43;;;;;;;2.40;2.40;;;;;;;-141.02;100.00;107971.50;5103750;28;20651;-57
2023/06/23 02:07:34;;;;;;;2.50;2.50;;;;;;;-141.02;100.00;107971.50;5115477;28;20238;-59
2023/06/23 02:10:03;;;;;;;2.80;2.80;;;;;;;-141.02;100.00;107971.50;5115757;28;20272;-70
2023/06/23 02:12:49;;;;;;;2.60;2.60;;;;;;;-141.02;100.00;107971.50;5115386;28;20726;-57
2023/06/23 02:15:18;;;;;;;2.40;2.40;;;;;;;-141.02;100.00;107971.50;5115267;28;20193;-69
2023/06/23 02:17:49;;;;;;;2.40;2.40;;;;;;;-141.02;100.00;107971.50;5114525;28;20228;-57
2023/06/23 02:23:39;;;;;;;2.42;2.42;;;;;;;-141.02;100.00;107971.50;5115173;28;20223;-57
2023/06/23 02:26:07;;;;;;;2.50;2.50;;;;;;;-141.02;100.00;107971.50;5115394;28;20209;-69
2023/06/23 02:28:35;;;;;;;2.38;2.38;;;;;;;-141.02;100.00;107971.50;5115078;28;20197;-57
2023/06/23 02:31:04;;;;;;;2.40;2.40;;;;;;;-141.02;100.00;107971.50;5115031;28;20197;-57
2023/06/23 02:33:32;;;;;;;2.30;2.30;;;;;;;-141.02;100.00;107971.50;5114922;28;20193;-57
2023/06/23 02:36:01;;;;;;;2.40;2.40;;;;;;;-141.02;100.00;107971.50;5115177;28;20235;-57
2023/06/23 02:38:31;;;;;;;2.45;2.45;;;;;;;-141.02;100.00;107971.50;5115167;28;20253;-57
2023/06/23 02:41:00;;;;;;;2.40;2.40;;;;;;;-141.02;100.00;107971.50;5115422;28;20189;-57
2023/06/23 02:43:31;;;;;;;2.50;2.50;;;;;;;-141.02;100.00;107971.50;5115113;28;20635;-57
2023/06/23 02:46:01;;;;;;;2.60;2.60;;;;;;;-141.02;100.00;107971.50;5114840;27;20243;-57
2023/06/23 02:48:34;;;;;;;2.70;2.70;;;;;;;-141.02;100.00;107971.50;5114997;28;20193;-57
2023/06/23 02:51:03;;;;;;;3.10;3.10;;;;;;;-141.02;100.00;107971.50;5114970;28;20189;-57
2023/06/23 02:53:36;;;;;;;3.20;3.20;;;;;;;-141.02;100.00;107971.50;5114919;28;20272;-57
2023/06/23 02:56:08;;;;;;;3.30;3.30;;;;;;;-141.02;100.00;107971.50;5114793;28;20271;-57
2023/06/23 02:58:36;;;;;;;3.30;3.30;;;;;;;-141.02;100.00;107971.50;5114568;28;20635;-57
2023/06/23 03:01:05;;;;;;;3.10;3.10;;;;;;;-141.02;100.00;107971.50;5114498;28;20229;-57
2023/06/23 03:03:35;;;;;;;3.15;3.15;;;;;;;-141.02;100.00;107971.50;5114796;28;20192;-57
2023/06/23 03:06:03;;;;;;;3.20;3.20;;;;;;;-141.02;100.00;107971.50;5114334;28;20831;-57
2023/06/23 03:08:31;;;;;;;2.47;2.47;;;;;;;-141.02;100.00;107971.50;5114308;28;20722;-57
2023/06/23 03:10:58;;;;;;;2.70;2.70;;;;;;;-141.02;100.00;107971.50;5114211;28;20228;-57
2023/06/23 03:13:25;;;;;;;2.30;2.30;;;;;;;-141.02;100.00;107971.50;5114288;28;20197;-58
2023/06/23 03:15:58;;;;;;;2.20;2.20;;;;;;;-141.02;100.00;107971.50;5114412;28;20221;-57
2023/06/23 03:18:30;;;;;;;2.15;2.15;;;;;;;-141.02;100.00;107971.50;5114463;28;20272;-57
2023/06/23 03:21:03;;;;;;;1.90;1.90;;;;;;;-141.02;100.00;107971.50;5114131;28;20281;-57
2023/06/23 03:23:33;;;;;;;2.10;2.10;;;;;;;-141.02;100.00;107971.50;5114633;28;20272;-57
2023/06/23 03:26:01;;;;;;;2.30;2.30;;;;;;;-141.02;100.00;107971.50;5113954;28;20204;-71
2023/06/23 03:28:32;;;;;;;1.90;1.90;;;;;;;-141.02;100.00;107971.50;5113890;28;20570;-57
2023/06/23 03:31:03;;;;;;;2.00;2.00;;;;;;;-141.02;100.00;107971.50;5112861;28;20189;-57
2023/06/23 03:33:34;;;;;;;2.00;2.00;;;;;;;-141.02;100.00;107971.50;5114155;28;20177;-57
2023/06/23 03:36:07;;;;;;;2.50;2.50;;;;;;;-141.02;100.00;107971.50;5114030;28;20220;-57
2023/06/23 03:38:38;;;;;;;3.70;3.60;;;;;;;-141.02;100.00;107971.50;5114011;28;20200;-57
2023/06/23 03:41:10;;;;;;;3.92;3.83;;;;;;;-141.02;100.00;107971.50;5113962;28;20216;-58
2023/06/23 03:43:40;;;;;;;5.13;5.03;;;;;;;-141.02;100.00;107971.50;5113965;27;20182;-57
2023/06/23 03:46:15;;;;;;;6.40;6.30;;;;;;;-141.02;100.00;107971.50;5113624;28;20229;-57
2023/06/23 03:48:44;;;;;;;7.93;7.72;;;;;;;-141.02;100.00;107971.50;5113861;28;20241;-57
2023/06/23 03:51:16;;;;;;;9.60;9.30;;;;;;;-141.02;100.00;107971.50;5113821;28;20191;-57
2023/06/23 03:53:45;;;;;;;8.60;8.40;;;;;;;-141.02;100.00;107971.50;5113426;28;20200;-57
2023/06/23 03:56:14;;;;;;;9.10;8.80;;;;;;;-141.02;100.00;107969.53;5113646;28;20270;-57
2023/06/23 03:58:41;;;;;;;9.63;9.32;;;;;;;-141.02;100.00;107969.53;5113629;28;20219;-57
2023/06/23 04:01:09;;;;;;;10.52;10.23;;;;;;;-141.02;100.00;107719.09;5113386;28;20286;-57
2023/06/23 04:03:38;;;;;;;11.60;11.20;;;;;;;-141.02;100.00;107719.09;5113570;28;20273;-57
2023/06/23 04:06:08;;;;;;;11.95;11.55;;;;;;;-141.02;100.00;107468.69;5113437;28;20197;-57
2023/06/23 04:08:39;;;;;;;13.00;12.50;;;;;;;-141.02;100.00;107218.31;5113420;28;20280;-57
2023/06/23 04:11:08;;;;;;;13.73;13.13;;;;;;;-141.02;100.00;106967.91;5113420;28;20185;-72
2023/06/23 04:13:38;;;;;;;15.13;14.32;;;;;;;-141.02;100.00;105966.59;5113062;28;20717;-58
2023/06/23 04:16:07;;;;;;;17.10;16.10;;;;;;;-141.02;100.00;105215.78;5112906;28;20225;-57
2023/06/23 04:18:38;;;;;;;18.58;17.38;;;;;;;-141.02;100.00;102714.25;5112937;28;20236;-57
2023/06/23 04:21:08;;;;;;;18.10;17.00;;;;;;;-141.02;100.00;101964.16;5113218;28;20185;-57
2023/06/23 04:23:37;;;;;;;17.50;16.40;;;;;;;-141.02;100.00;101714.16;5113217;28;20250;-57
2023/06/23 04:26:06;;;;;;;17.45;16.55;;;;;;;-141.02;100.00;101464.19;5113096;28;20598;-58
2023/06/23 04:28:35;;;;;;;18.10;17.10;;;;;;;-141.02;100.00;101464.19;5112813;28;20224;-57
2023/06/23 04:31:07;;;;;;;17.08;15.98;;;;;;;-141.02;100.00;101714.16;5112758;28;20261;-58
2023/06/23 04:33:34;;;;;;;16.80;15.70;;;;;;;-141.02;100.00;101964.16;5113117;28;20679;-57
2023/06/23 04:36:08;;;;;;;17.13;16.13;;;;;;;-141.02;100.00;101964.16;5112590;28;20279;-57
2023/06/23 04:38:41;;;;;;;17.63;16.52;;;;;;;-141.02;100.00;101964.16;5112695;28;20185;-57
2023/06/23 04:41:13;;;;;;;17.27;16.20;;;;;;;-141.02;100.00;101464.19;5112619;28;20213;-57
2023/06/23 04:43:44;;;;;;;17.95;16.85;;;;;;;-141.02;100.00;100964.25;5112970;28;20217;-57
2023/06/23 04:46:16;;;;;;;18.40;17.30;;;;;;;-141.02;100.00;100214.53;5112924;28;20611;-57
2023/06/23 04:48:50;;;;;;;18.17;16.88;;;;;;;-141.02;100.00;99964.66;5112841;28;20212;-57
2023/06/23 04:51:18;;;;;;;18.85;17.45;;;;;;;-141.02;100.00;98965.34;5112538;28;20647;-57
2023/06/23 04:53:53;;;;;;;19.02;17.73;;;;;;;-141.02;100.00;97716.59;5112420;28;20637;-57
2023/06/23 04:56:23;;;;;;;19.50;18.10;;;;;;;-141.02;100.00;97217.22;5112757;28;20208;-57
2023/06/23 04:58:54;;;;;;;18.52;17.23;;;;;;;-141.02;100.00;96717.94;5112447;28;20242;-57
2023/06/23 05:01:22;;;;;;;18.48;17.08;;;;;;;-141.02;100.00;96468.31;5112224;28;20725;-57
2023/06/23 05:03:53;;;;;;;17.88;16.48;;;;;;;-141.02;100.00;97217.22;5112367;28;20189;-57
2023/06/23 05:06:22;;;;;;;18.45;16.95;;;;;;;-141.02;100.00;97217.22;5112680;28;20189;-57
2023/06/23 05:08:52;;;;;;;18.98;17.48;;;;;;;-141.02;100.00;96218.69;5112256;28;20201;-57
2023/06/23 05:11:21;;;;;;;18.90;17.40;;;;;;;-141.02;100.00;96218.69;5112704;28;20272;-57
2023/06/23 05:13:50;;;;;;;19.00;17.48;;;;;;;-141.02;100.00;95470.00;5112295;28;20571;-57
2023/06/23 05:16:19;;;;;;;19.02;17.42;;;;;;;-141.02;100.00;96468.31;5112456;28;20193;-57
2023/06/23 05:18:48;;;;;;;18.73;17.13;;;;;;;-141.02;100.00;95969.13;5112562;28;20205;-57
2023/06/23 05:21:19;;;;;;;18.52;17.02;;;;;;;-141.02;100.00;95969.13;5112218;28;20200;-57
2023/06/23 05:23:48;;;;;;;18.63;17.13;;;;;;;-141.02;100.00;95719.53;5112580;28;20185;-57
2023/06/23 05:26:17;;;;;;;17.67;16.17;;;;;;;-141.02;100.00;95969.13;5112132;28;20341;-57
2023/06/23 05:28:46;;;;;;;17.20;15.85;;;;;;;-141.02;100.00;96218.69;5112177;28;20211;-57
2023/06/23 05:31:16;;;;;;;17.00;15.70;;;;;;;-141.02;100.00;96468.31;5112410;28;20193;-57
2023/06/23 05:33:45;;;;;;;16.98;15.68;;;;;;;-141.02;100.00;96218.69;5112149;28;20750;-57
2023/06/23 05:36:13;;;;;;;17.00;15.70;;;;;;;-141.02;100.00;96468.31;5111954;28;20199;-56
2023/06/23 05:38:44;;;;;;;17.13;15.82;;;;;;;-141.02;100.00;96717.94;5112074;28;20193;-57
2023/06/23 05:41:11;;;;;;;17.55;16.15;;;;;;;-141.02;100.00;96468.31;5112142;28;20235;-69
2023/06/23 05:43:40;;;;;;;17.05;15.75;;;;;;;-141.02;100.00;96967.56;5111988;28;20193;-57
2023/06/23 05:46:11;;;;;;;16.88;15.77;;;;;;;-141.02;100.00;97716.59;5112288;28;20227;-56
2023/06/23 05:48:43;;;;;;;15.57;14.57;;;;;;;-141.02;100.00;98465.78;5112304;28;20292;-56
2023/06/23 05:51:17;;;;;;;16.50;15.40;;;;;;;-141.02;100.00;98965.34;5112023;28;20221;-57
2023/06/23 05:53:49;;;;;;;16.40;15.30;;;;;;;-141.02;100.00;98965.34;5113775;28;20238;-56
2023/06/23 05:56:20;;;;;;;16.08;15.07;;;;;;;-141.02;100.00;99714.81;5116097;28;20204;-56
2023/06/23 05:58:55;;;;;;;24.65;22.85;;;;;;;-141.02;100.00;99714.81;5115680;28;20186;-56
2023/06/23 06:01:26;;;;;;;16.42;15.43;;;;;;;-141.02;100.00;99964.66;5115675;28;20224;-56
2023/06/23 06:04:00;;;;;;;16.00;15.00;;;;;;;-141.02;100.00;99464.97;5116133;28;20200;-68
2023/06/23 06:06:29;;;;;;;15.98;14.98;;;;;;;-141.02;100.00;100464.44;5115591;28;20191;-56
2023/06/23 06:08:59;;;;;;;16.90;15.80;;;;;;;-141.02;100.00;99714.81;5115755;28;20604;-57
2023/06/23 06:11:28;;;;;;;15.93;14.82;;;;;;;-141.02;100.00;99215.16;5115484;28;20246;-57
2023/06/23 06:13:58;;;;;;;16.70;15.60;;;;;;;-141.02;100.00;100464.44;5115367;28;20193;-56
2023/06/23 06:16:26;;;;;;;17.23;15.93;;;;;;;-141.02;100.00;99464.97;5115458;28;20280;-56
2023/06/23 06:18:54;;;;;;;18.30;16.90;;;;;;;-141.02;100.00;99215.16;5115617;27;20242;-57
2023/06/23 06:21:23;;;;;;;17.40;16.10;;;;;;;-141.02;100.00;99215.16;5115196;28;20235;-56
2023/06/23 06:23:52;;;;;;;16.90;15.60;;;;;;;-141.02;100.00;99714.81;5115231;28;20193;-56
2023/06/23 06:26:21;;;;;;;17.90;16.50;;;;;;;-141.02;100.00;99714.81;5115496;28;20189;-56
2023/06/23 06:28:52;;;;;;;18.33;16.92;;;;;;;-141.02;100.00;99464.97;5115415;28;20240;-56
2023/06/23 06:31:21;;;;;;;18.08;16.77;;;;;;;-141.02;100.00;99714.81;5115294;28;20185;-69
2023/06/23 06:33:51;;;;;;;17.58;16.25;;;;;;;-141.02;100.00;99464.97;5115270;28;20286;-56
2023/06/23 06:36:20;;;;;;;17.65;16.35;;;;;;;-141.02;100.00;99714.81;5115280;28;20192;-69
2023/06/23 06:38:51;;;;;;;18.67;17.17;;;;;;;-141.02;100.00;98965.34;5115167;28;20232;-69
2023/06/23 06:41:18;;;;;;;18.75;17.25;;;;;;;-141.02;100.00;99215.16;5115180;28;20207;-56
2023/06/23 06:43:45;;;;;;;17.75;16.38;;;;;;;-141.02;100.00;98965.34;5114773;28;20235;-57
2023/06/23 06:46:14;;;;;;;18.67;17.17;;;;;;;-141.02;100.00;98465.78;5114765;27;20197;-67
2023/06/23 06:48:46;;;;;;;19.20;17.60;;;;;;;-141.02;100.00;98216.03;5114692;28;20201;-69
2023/06/23 06:51:14;;;;;;;19.10;17.60;;;;;;;-141.02;100.00;97966.31;5115015;28;20238;-56
2023/06/23 06:53:41;;;;;;;19.58;18.08;;;;;;;-141.02;100.00;97716.59;5114540;28;20650;-56
2023/06/23 06:56:09;;;;;;;19.30;17.60;;;;;;;-141.02;100.00;97466.91;5114671;28;20246;-56
2023/06/23 06:58:39;;;;;;;19.10;17.50;;;;;;;-141.02;100.00;97966.31;5114764;28;20225;-69
2023/06/23 07:01:07;;;;;;;19.45;17.85;;;;;;;-141.02;100.00;98216.03;5114282;27;20312;-56
2023/06/23 07:03:35;;;;;;;19.35;17.75;;;;;;;-141.02;100.00;98465.78;5114261;27;20583;-56
2023/06/23 07:06:03;;;;;;;19.73;17.92;;;;;;;-141.02;100.00;97716.59;5114387;28;20616;-56
2023/06/23 07:08:30;;;;;;;19.55;17.85;;;;;;;-141.02;100.00;97466.91;5114407;28;20578;-56
2023/06/23 07:10:57;;;;;;;20.65;18.75;;;;;;;-141.02;100.00;97466.91;5114576;28;20220;-56
2023/06/23 07:13:24;;;;;;;22.27;20.17;;;;;;;-141.02;100.00;96967.56;5114254;28;20250;-56
2023/06/23 07:15:52;;;;;;;21.42;19.42;;;;;;;-141.02;100.00;96717.94;5114500;28;20200;-56
2023/06/23 07:18:19;;;;;;;23.00;20.80;;;;;;;-141.02;100.00;95969.13;5114381;28;20228;-56
2023/06/23 07:20:46;;;;;;;21.20;19.20;;;;;;;-141.02;100.00;96717.94;5114091;28;20746;-56
2023/06/23 07:23:14;;;;;;;21.15;19.25;;;;;;;-141.02;100.00;97217.22;5114051;28;20233;-70
2023/06/23 07:25:41;;;;;;;22.23;20.13;;;;;;;-141.02;100.00;96717.94;5114370;28;20193;-56
2023/06/23 07:28:08;;;;;;;24.80;22.50;;;;;;;-141.02;100.00;96218.69;5113958;28;20710;-56
2023/06/23 07:30:37;;;;;;;20.85;18.92;;;;;;;-141.02;100.00;96717.94;5114215;28;20231;-56
2023/06/23 07:33:04;;;;;;;22.13;20.02;;;;;;;-141.02;100.00;97966.31;5113877;28;20197;-56
2023/06/23 07:35:31;;;;;;;24.38;21.98;;;;;;;-141.02;98.83;96717.94;5113823;28;20193;-56
2023/06/23 07:37:58;;;;;;;22.85;20.65;;;;;;;-141.02;97.27;96717.94;5113726;28;20224;-56
2023/06/23 07:40:26;;;;;;;23.77;21.48;;;;;;;-141.02;97.83;96717.94;5113992;28;20196;-56
2023/06/23 07:42:53;;;;;;;23.83;21.42;;;;;;;-141.02;99.37;96717.94;5113968;28;20284;-56
2023/06/23 07:45:21;;;;;;;22.10;19.95;;;;;;;-141.02;100.00;96717.94;5113922;28;20246;-56
2023/06/23 07:47:48;;;;;;;23.15;20.85;;;;;;;-141.02;96.89;96468.31;5113598;28;20193;-56
2023/06/23 07:50:15;;;;;;;22.73;20.42;;;;;;;-141.02;99.55;96967.56;5113892;28;20193;-70
2023/06/23 07:52:42;;;;;;;23.48;21.17;;;;;;;-141.02;99.11;97716.59;5113352;28;20626;-56
2023/06/23 07:55:09;;;;;;;22.90;20.60;;;;;;;-141.02;93.42;96967.56;5113729;27;20608;-56
2023/06/23 07:57:38;;;;;;;24.05;21.58;;;;;;;-141.02;93.55;96468.31;5113246;28;20256;-56
2023/06/23 08:00:07;;;;;;;25.40;22.80;;;;;;;-141.02;92.32;96967.56;5113663;28;20193;-56
2023/06/23 08:02:34;;;;;;;25.40;22.70;;;;;;;-141.02;88.86;96468.31;5113259;28;20227;-56
2023/06/23 08:05:01;;;;;;;25.20;22.50;;;;;;;-141.02;90.56;96468.31;5113526;28;20197;-71
2023/06/23 08:07:28;;;;;;;25.35;22.65;;;;;;;-141.02;93.33;96967.56;5113228;28;20288;-56
2023/06/23 08:09:55;;;;;;;24.42;21.92;;;;;;;-141.02;94.05;96967.56;5113418;28;20275;-56
2023/06/23 08:12:22;;;;;;;26.23;23.52;;;;;;;-141.02;90.79;96468.31;5113129;28;20242;-56
2023/06/23 08:14:50;;;;;;;25.45;22.75;;;;;;;-141.02;91.25;96468.31;5113389;28;20618;-56
2023/06/23 08:17:17;;;;;;;25.75;22.95;;;;;;;-141.02;90.30;96468.31;5112684;28;20224;-56
2023/06/23 08:19:44;;;;;;;23.80;21.27;;;;;;;-141.02;87.07;95969.13;5113477;28;20193;-56
2023/06/23 08:22:11;;;;;;;25.80;23.10;;;;;;;-141.02;90.83;96468.31;5112975;28;20280;-63
2023/06/23 08:24:38;;;;;;;27.45;24.45;;;;;;;-141.02;86.92;96468.31;5113194;28;20279;-56
2023/06/23 08:27:06;;;;;;;27.92;25.02;;;;;;;-141.02;84.76;95719.53;5113194;28;20193;-56
2023/06/23 08:29:34;;;;;;;28.48;25.58;;;;;;;-141.02;88.52;95969.13;5113211;28;20332;-56
2023/06/23 08:32:02;;;;;;;26.80;24.00;;;;;;;-141.02;91.03;96967.56;5112778;28;20224;-65
2023/06/23 08:34:29;;;;;;;26.17;23.48;;;;;;;-141.02;90.30;96967.56;5112724;28;20189;-70
2023/06/23 08:36:56;;;;;;;26.02;23.30;;;;;;;-141.02;86.29;96218.69;5113071;28;20238;-56
2023/06/23 08:39:24;;;;;;;26.15;23.45;;;;;;;-141.02;86.86;95719.53;5112557;28;20263;-56
2023/06/23 08:41:52;;;;;;;25.48;22.77;;;;;;;-141.02;82.92;94970.94;5112691;28;20193;-56
2023/06/23 08:44:22;;;;;;;25.23;22.58;;;;;;;-141.02;84.27;95470.00;5112577;28;20284;-56
2023/06/23 08:46:56;;;;;;;27.05;24.15;;;;;;;-141.02;82.30;95470.00;5112965;28;20189;-56
2023/06/23 08:49:25;;;;;;;27.13;24.23;;;;;;;-141.02;82.05;95969.13;5112939;28;20280;-56
2023/06/23 08:51:52;;;;;;;27.80;24.58;;;;;;;-141.02;77.32;94721.44;5112871;28;20220;-56
2023/06/23 08:54:20;;;;;;;26.92;23.55;;;;;;;-141.02;81.01;95220.47;5112799;28;20193;-56
2023/06/23 08:56:48;;;;;;;25.70;22.90;;;;;;;-141.02;82.98;95470.00;5112512;28;20204;-56
2023/06/23 08:59:15;;;;;;;26.67;22.80;;;;;;;-141.02;78.39;94970.94;5112395;28;20264;-56
2023/06/23 09:01:42;;;;;;;24.48;21.88;;;;;;;-141.02;84.98;96218.69;5112176;28;20220;-56
2023/06/23 09:04:09;;;;;;;27.58;24.58;;;;;;;-141.02;77.32;94970.94;5112046;28;20193;-57
2023/06/23 09:06:38;;;;;;;28.17;25.08;;;;;;;-141.02;78.65;94471.97;5112497;28;20185;-56
2023/06/23 09:09:07;;;;;;;28.08;24.98;;;;;;;-141.02;78.43;94471.97;5112687;28;20203;-56
2023/06/23 09:11:34;;;;;;;26.60;23.58;;;;;;;-141.02;78.08;95220.47;5112335;28;20197;-69
2023/06/23 09:14:04;;;;;;;27.50;24.10;;;;;;;-141.02;75.10;94970.94;5112589;28;20235;-66
2023/06/23 09:16:32;;;;;;;27.15;23.63;;;;;;;-141.02;76.30;94970.94;5112253;28;20284;-57
2023/06/23 09:19:02;;;;;;;28.17;23.88;;;;;;;-141.02;71.66;93723.63;5112477;28;20602;-56
2023/06/23 09:21:30;;;;;;;29.55;25.92;;;;;;;-141.02;71.21;92975.47;5112284;28;20189;-56
2023/06/23 09:24:02;;;;;;;29.25;25.88;;;;;;;-141.02;75.12;93973.06;5112550;28;20232;-57
2023/06/23 09:26:29;;;;;;;27.75;24.75;;;;;;;-141.02;73.91;93973.06;5112558;28;20246;-56
2023/06/23 09:29:15;;;;;;;29.63;26.42;;;;;;;-141.02;69.51;93224.84;5116537;28;20280;-71
2023/06/23 09:31:42;;;;;;;28.10;24.48;;;;;;;-141.02;70.57;92975.47;5116576;28;20272;-56
2023/06/23 09:34:09;;;;;;;28.00;24.75;;;;;;;-141.02;71.51;92726.13;5116191;28;20197;-56
2023/06/23 09:36:37;;;;;;;30.33;27.02;;;;;;;-141.02;69.36;91230.38;5116435;28;20280;-56
2023/06/23 09:39:06;;;;;;;29.67;26.48;;;;;;;-141.02;73.79;92476.78;5116400;28;20282;-56
2023/06/23 09:41:33;;;;;;;29.35;26.02;;;;;;;-141.02;69.13;90482.72;5116323;28;20189;-71
2023/06/23 09:44:00;;;;;;;29.02;25.73;;;;;;;-141.02;73.09;91978.16;5116307;28;20284;-57
2023/06/23 09:46:32;;;;;;;31.60;28.30;;;;;;;-141.02;68.92;91479.63;5115847;28;20584;-56
2023/06/23 09:49:00;;;;;;;28.38;25.27;;;;;;;-141.02;68.95;91978.16;5115978;28;20228;-57
2023/06/23 09:51:27;;;;;;;30.30;27.10;;;;;;;-141.02;72.55;92476.78;5115814;28;20214;-56
2023/06/23 09:53:54;;;;;;;32.90;29.50;;;;;;;-141.02;67.71;91230.38;5116657;28;20189;-57
2023/06/23 09:56:23;;;;;;;34.08;30.48;;;;;;;-141.02;64.69;90233.56;5115718;28;20676;-71
2023/06/23 09:58:50;;;;;;;32.40;29.00;;;;;;;-141.02;68.63;91230.38;5115891;28;20312;-56
2023/06/23 10:01:19;;;;;;;32.25;28.75;;;;;;;-141.02;68.03;91230.38;5115411;28;20327;-64
2023/06/23 10:03:47;;;;;;;32.83;29.33;;;;;;;-141.02;67.47;90731.94;5115537;28;20666;-71
2023/06/23 10:06:25;;;;;;;30.05;26.77;;;;;;;-141.02;68.84;90981.13;5115889;28;20235;-57
2023/06/23 10:08:55;;;;;;;32.78;29.17;;;;;;;-141.02;66.02;90233.56;5115430;28;20193;-62
2023/06/23 10:11:30;;;;;;;34.58;30.88;;;;;;;-141.02;67.43;90981.13;5115405;28;20671;-57
2023/06/23 10:13:59;;;;;;;32.88;29.38;;;;;;;-141.02;66.88;91230.38;5115655;28;20189;-58
2023/06/23 10:16:26;;;;;;;34.80;31.10;;;;;;;-141.02;63.90;89237.03;5115352;28;20197;-57
2023/06/23 10:18:54;;;;;;;35.20;31.50;;;;;;;-141.02;67.36;91230.38;5115487;28;20312;-57
2023/06/23 10:21:21;;;;;;;34.90;31.20;;;;;;;-141.02;63.80;89735.28;5115205;28;20224;-71
2023/06/23 10:23:49;;;;;;;35.65;31.85;;;;;;;-141.02;63.53;89984.41;5115524;28;20250;-56
2023/06/23 10:26:18;;;;;;;34.35;30.75;;;;;;;-141.02;60.47;87991.81;5115081;28;20740;-72
2023/06/23 10:28:47;;;;;;;31.60;28.20;;;;;;;-141.02;64.19;89237.03;5115408;28;20269;-71
2023/06/23 10:31:15;;;;;;;33.90;30.30;;;;;;;-141.02;63.11;89237.03;5115302;28;20280;-57
2023/06/23 10:33:46;;;;;;;33.35;29.75;;;;;;;-141.02;61.69;88240.81;5114976;28;20604;-56
2023/06/23 10:36:17;;;;;;;33.17;29.58;;;;;;;-141.02;59.58;87742.81;5114912;28;20283;-57
2023/06/23 10:38:47;;;;;;;35.50;31.75;;;;;;;-141.02;58.33;87244.88;5114557;28;20213;-57
2023/06/23 10:41:15;;;;;;;38.40;34.53;;;;;;;-141.02;61.92;87742.81;5115440;28;20284;-57
2023/06/23 10:43:46;;;;;;;35.00;31.30;;;;;;;-141.02;61.77;87991.81;5115086;28;20199;-57
2023/06/23 10:46:15;;;;;;;34.20;30.50;;;;;;;-141.02;58.33;87244.88;5115131;28;20268;-57
2023/06/23 10:48:44;;;;;;;34.88;31.17;;;;;;;-141.02;62.59;88240.81;5114997;28;20284;-57
2023/06/23 10:51:12;;;;;;;33.85;30.20;;;;;;;-141.02;58.06;86000.34;5114984;28;20196;-71
2023/06/23 10:53:45;;;;;;;33.15;29.55;;;;;;;-141.02;58.30;86498.09;5114550;28;20284;-57
2023/06/23 10:56:31;;;;;;;34.47;30.77;;;;;;;-141.02;57.74;85253.84;5114615;28;20221;-57
2023/06/23 10:58:58;;;;;;;37.25;33.35;;;;;;;-141.02;58.00;84507.50;5114835;28;20220;-59
2023/06/23 11:01:27;;;;;;;35.58;31.77;;;;;;;-141.02;57.69;85005.03;5114505;28;20319;-71
2023/06/23 11:03:57;;;;;;;34.67;30.98;;;;;;;-141.02;57.54;84258.75;5114387;28;20288;-58
2023/06/23 11:06:29;;;;;;;33.05;29.40;;;;;;;-141.02;55.98;84507.50;5114485;28;20205;-71
2023/06/23 11:08:58;;;;;;;34.25;30.55;;;;;;;-141.02;57.75;86000.34;5114241;28;20284;-70
2023/06/23 11:11:33;;;;;;;33.50;29.90;;;;;;;-141.02;54.04;82269.47;5114313;27;20654;-73
2023/06/23 11:14:01;;;;;;;35.60;31.80;;;;;;;-141.02;53.72;82020.88;5114419;28;20197;-64
2023/06/23 11:16:31;;;;;;;35.80;32.00;;;;;;;-141.02;54.12;82020.88;5114218;28;20196;-57
2023/06/23 11:18:59;;;;;;;35.05;31.25;;;;;;;-141.02;52.38;81275.25;5114593;28;20217;-60
2023/06/23 11:21:34;;;;;;;37.33;33.33;;;;;;;-141.02;52.83;79784.44;5114400;28;20193;-57
2023/06/23 11:24:15;;;;;;;37.00;33.10;;;;;;;-141.02;53.79;81026.72;5114289;28;20224;-57
2023/06/23 11:26:51;;;;;;;36.03;32.22;;;;;;;-141.02;51.97;81523.75;5114365;28;20185;-62
2023/06/23 11:29:20;;;;;;;33.25;29.65;;;;;;;-141.02;51.08;82020.88;5113872;28;20228;-69
2023/06/23 11:32:08;;;;;;;35.90;32.08;;;;;;;-141.02;52.79;82020.88;5114149;28;20275;-57
2023/06/23 11:34:52;;;;;;;32.67;29.05;;;;;;;-141.02;51.91;81772.31;5114206;28;20533;-71